sensor_id;sensor_type;location;lat;lon;timestamp;pressure;altitude;pressure_sealevel;temperature;humidity
31225;BME280;17847;31.524;74.366;2022-08-21T00:00:38;97740.63;;;30.61;76.63
31225;BME280;17847;31.524;74.366;2022-08-21T00:03:43;97736.38;;;30.68;76.69
31225;BME280;17847;31.524;74.366;2022-08-21T00:06:53;97737.09;;;30.64;76.68
31225;BME280;17847;31.524;74.366;2022-08-21T00:09:57;97743.81;;;30.63;76.82
31225;BME280;17847;31.524;74.366;2022-08-21T00:13:13;97733.13;;;30.62;76.28
31225;BME280;17847;31.524;74.366;2022-08-21T00:16:16;97741.84;;;30.64;76.77
31225;BME280;17847;31.524;74.366;2022-08-21T00:19:32;97738.00;;;30.72;76.73
31225;BME280;17847;31.524;74.366;2022-08-21T00:22:28;97732.88;;;30.71;76.78
31225;BME280;17847;31.524;74.366;2022-08-21T00:25:44;97736.56;;;30.55;77.32
31225;BME280;17847;31.524;74.366;2022-08-21T00:28:40;97729.56;;;30.61;76.86
31225;BME280;17847;31.524;74.366;2022-08-21T00:31:58;97732.81;;;30.67;76.72
31225;BME280;17847;31.524;74.366;2022-08-21T00:34:54;97733.53;;;30.64;77.05
31225;BME280;17847;31.524;74.366;2022-08-21T00:38:09;97733.19;;;30.66;76.99
31225;BME280;17847;31.524;74.366;2022-08-21T00:41:09;97735.59;;;30.67;77.14
31225;BME280;17847;31.524;74.366;2022-08-21T00:44:38;97742.69;;;30.68;76.72
31225;BME280;17847;31.524;74.366;2022-08-21T00:47:53;97747.03;;;30.66;76.65
31225;BME280;17847;31.524;74.366;2022-08-21T00:51:04;97738.41;;;30.71;76.40
31225;BME280;17847;31.524;74.366;2022-08-21T00:54:13;97741.19;;;30.71;76.81
31225;BME280;17847;31.524;74.366;2022-08-21T00:57:24;97747.09;;;30.69;77.17
31225;BME280;17847;31.524;74.366;2022-08-21T01:00:37;97753.91;;;30.75;76.75
31225;BME280;17847;31.524;74.366;2022-08-21T01:03:40;97752.78;;;30.80;76.87
31225;BME280;17847;31.524;74.366;2022-08-21T01:06:49;97756.44;;;30.84;76.33
31225;BME280;17847;31.524;74.366;2022-08-21T01:09:53;97762.34;;;30.82;76.80
31225;BME280;17847;31.524;74.366;2022-08-21T01:13:03;97756.38;;;30.80;77.20
31225;BME280;17847;31.524;74.366;2022-08-21T01:16:09;97763.75;;;30.96;76.44
31225;BME280;17847;31.524;74.366;2022-08-21T01:19:18;97773.03;;;31.07;76.45
31225;BME280;17847;31.524;74.366;2022-08-21T01:22:22;97771.00;;;31.04;75.96
31225;BME280;17847;31.524;74.366;2022-08-21T01:25:30;97771.16;;;31.15;76.04
31225;BME280;17847;31.524;74.366;2022-08-21T01:28:38;97774.72;;;31.15;76.19
31225;BME280;17847;31.524;74.366;2022-08-21T01:31:48;97784.06;;;31.30;75.58
31225;BME280;17847;31.524;74.366;2022-08-21T01:34:51;97783.66;;;31.32;75.58
31225;BME280;17847;31.524;74.366;2022-08-21T01:37:55;97790.06;;;31.36;75.68
31225;BME280;17847;31.524;74.366;2022-08-21T01:41:10;97794.16;;;31.46;74.83
31225;BME280;17847;31.524;74.366;2022-08-21T01:44:06;97794.97;;;31.46;75.01
31225;BME280;17847;31.524;74.366;2022-08-21T01:47:22;97804.31;;;31.34;74.66
31225;BME280;17847;31.524;74.366;2022-08-21T01:50:39;97803.53;;;31.37;74.90
31225;BME280;17847;31.524;74.366;2022-08-21T01:53:50;97807.22;;;31.45;74.28
31225;BME280;17847;31.524;74.366;2022-08-21T01:56:58;97807.91;;;31.65;74.56
31225;BME280;17847;31.524;74.366;2022-08-21T02:00:05;97804.41;;;31.72;75.39
31225;BME280;17847;31.524;74.366;2022-08-21T02:03:22;97815.34;;;31.88;73.79
31225;BME280;17847;31.524;74.366;2022-08-21T02:06:29;97819.75;;;31.92;73.28
31225;BME280;17847;31.524;74.366;2022-08-21T02:09:37;97820.53;;;31.93;72.86
31225;BME280;17847;31.524;74.366;2022-08-21T02:12:47;97822.09;;;31.90;72.97
31225;BME280;17847;31.524;74.366;2022-08-21T02:15:49;97822.38;;;32.12;72.91
31225;BME280;17847;31.524;74.366;2022-08-21T02:18:58;97826.09;;;32.27;71.67
31225;BME280;17847;31.524;74.366;2022-08-21T02:22:01;97832.81;;;32.60;71.20
31225;BME280;17847;31.524;74.366;2022-08-21T02:25:09;97828.13;;;32.67;69.87
31225;BME280;17847;31.524;74.366;2022-08-21T02:28:14;97828.94;;;32.68;69.42
31225;BME280;17847;31.524;74.366;2022-08-21T02:31:31;97834.09;;;32.66;70.39
31225;BME280;17847;31.524;74.366;2022-08-21T02:34:27;97831.66;;;32.61;69.41
31225;BME280;17847;31.524;74.366;2022-08-21T02:37:52;97834.34;;;32.94;69.34
31225;BME280;17847;31.524;74.366;2022-08-21T02:40:50;97843.13;;;33.00;68.45
31225;BME280;17847;31.524;74.366;2022-08-21T02:44:06;97840.78;;;33.06;67.65
31225;BME280;17847;31.524;74.366;2022-08-21T02:47:02;97842.69;;;32.98;67.40
31225;BME280;17847;31.524;74.366;2022-08-21T02:50:22;97843.06;;;32.96;67.89
31225;BME280;17847;31.524;74.366;2022-08-21T02:53:20;97848.69;;;33.04;68.45
31225;BME280;17847;31.524;74.366;2022-08-21T02:56:36;97846.94;;;33.29;68.71
31225;BME280;17847;31.524;74.366;2022-08-21T02:59:39;97847.59;;;33.12;66.43
31225;BME280;17847;31.524;74.366;2022-08-21T03:02:49;97850.19;;;33.42;67.07
31225;BME280;17847;31.524;74.366;2022-08-21T03:05:52;97845.56;;;33.64;64.52
31225;BME280;17847;31.524;74.366;2022-08-21T03:09:01;97848.34;;;33.64;65.06
31225;BME280;17847;31.524;74.366;2022-08-21T03:12:04;97848.16;;;33.35;64.84
31225;BME280;17847;31.524;74.366;2022-08-21T03:15:16;97850.63;;;33.48;65.13
31225;BME280;17847;31.524;74.366;2022-08-21T03:18:20;97854.03;;;33.86;64.29
31225;BME280;17847;31.524;74.366;2022-08-21T03:21:29;97857.38;;;33.50;65.32
31225;BME280;17847;31.524;74.366;2022-08-21T03:24:32;97857.97;;;33.78;63.64
31225;BME280;17847;31.524;74.366;2022-08-21T03:27:37;97851.66;;;33.84;64.44
31225;BME280;17847;31.524;74.366;2022-08-21T03:30:50;97861.25;;;33.94;62.83
31225;BME280;17847;31.524;74.366;2022-08-21T03:33:46;97859.19;;;33.84;63.29
31225;BME280;17847;31.524;74.366;2022-08-21T03:37:06;97858.19;;;34.21;63.96
31225;BME280;17847;31.524;74.366;2022-08-21T03:40:05;97858.44;;;33.94;62.50
31225;BME280;17847;31.524;74.366;2022-08-21T03:43:21;97862.97;;;34.24;62.41
31225;BME280;17847;31.524;74.366;2022-08-21T03:46:23;97863.28;;;34.08;61.23
31225;BME280;17847;31.524;74.366;2022-08-21T03:49:39;97863.81;;;34.39;60.43
31225;BME280;17847;31.524;74.366;2022-08-21T03:52:42;97863.00;;;34.38;61.87
31225;BME280;17847;31.524;74.366;2022-08-21T03:55:50;97871.78;;;34.55;61.46
31225;BME280;17847;31.524;74.366;2022-08-21T03:58:54;97868.63;;;34.60;63.33
31225;BME280;17847;31.524;74.366;2022-08-21T04:02:06;97872.59;;;34.62;59.04
31225;BME280;17847;31.524;74.366;2022-08-21T04:05:09;97871.00;;;34.54;59.38
31225;BME280;17847;31.524;74.366;2022-08-21T04:08:37;97869.81;;;34.66;60.52
31225;BME280;17847;31.524;74.366;2022-08-21T04:11:40;97870.63;;;34.63;59.22
31225;BME280;17847;31.524;74.366;2022-08-21T04:14:49;97870.28;;;35.07;58.80
31225;BME280;17847;31.524;74.366;2022-08-21T04:17:55;97881.88;;;35.27;59.25
31225;BME280;17847;31.524;74.366;2022-08-21T04:21:03;97875.91;;;35.22;56.88
31225;BME280;17847;31.524;74.366;2022-08-21T04:24:08;97876.66;;;35.40;58.27
31225;BME280;17847;31.524;74.366;2022-08-21T04:27:29;97881.03;;;35.59;56.51
31225;BME280;17847;31.524;74.366;2022-08-21T04:30:25;97878.28;;;35.38;57.29
31225;BME280;17847;31.524;74.366;2022-08-21T04:33:41;97879.09;;;35.27;59.07
31225;BME280;17847;31.524;74.366;2022-08-21T04:36:37;97868.28;;;35.15;58.76
31225;BME280;17847;31.524;74.366;2022-08-21T04:39:53;97881.44;;;34.89;59.70
31225;BME280;17847;31.524;74.366;2022-08-21T04:42:55;97881.84;;;34.84;58.25
31225;BME280;17847;31.524;74.366;2022-08-21T04:46:11;97878.22;;;34.69;58.32
31225;BME280;17847;31.524;74.366;2022-08-21T04:49:13;97872.97;;;34.50;59.47
31225;BME280;17847;31.524;74.366;2022-08-21T04:52:28;97880.63;;;34.75;59.76
31225;BME280;17847;31.524;74.366;2022-08-21T04:55:25;97880.25;;;35.05;59.90
31225;BME280;17847;31.524;74.366;2022-08-21T04:58:42;97871.88;;;35.48;57.73
31225;BME280;17847;31.524;74.366;2022-08-21T05:01:38;97873.44;;;35.85;56.07
31225;BME280;17847;31.524;74.366;2022-08-21T05:04:57;97869.28;;;36.29;55.70
31225;BME280;17847;31.524;74.366;2022-08-21T05:07:53;97874.03;;;36.32;56.46
31225;BME280;17847;31.524;74.366;2022-08-21T05:11:10;97869.16;;;36.47;53.42
31225;BME280;17847;31.524;74.366;2022-08-21T05:14:06;97863.22;;;36.41;53.80
31225;BME280;17847;31.524;74.366;2022-08-21T05:17:22;97868.13;;;36.09;53.29
31225;BME280;17847;31.524;74.366;2022-08-21T05:20:28;97878.03;;;36.38;55.18
31225;BME280;17847;31.524;74.366;2022-08-21T05:23:44;97867.66;;;36.98;53.42
31225;BME280;17847;31.524;74.366;2022-08-21T05:26:47;97873.88;;;36.68;52.31
31225;BME280;17847;31.524;74.366;2022-08-21T05:30:03;97869.75;;;36.83;51.01
31225;BME280;17847;31.524;74.366;2022-08-21T05:33:02;97867.06;;;37.25;50.60
31225;BME280;17847;31.524;74.366;2022-08-21T05:36:18;97862.28;;;36.70;52.11
31225;BME280;17847;31.524;74.366;2022-08-21T05:39:14;97868.72;;;37.19;49.83
31225;BME280;17847;31.524;74.366;2022-08-21T05:42:53;97870.59;;;36.80;52.25
31225;BME280;17847;31.524;74.366;2022-08-21T05:45:57;97871.84;;;35.77;54.27
31225;BME280;17847;31.524;74.366;2022-08-21T05:49:05;97869.06;;;35.59;55.20
31225;BME280;17847;31.524;74.366;2022-08-21T05:52:19;97869.47;;;35.72;55.89
31225;BME280;17847;31.524;74.366;2022-08-21T05:55:36;97863.91;;;35.46;55.72
31225;BME280;17847;31.524;74.366;2022-08-21T05:58:39;97873.88;;;35.51;55.56
31225;BME280;17847;31.524;74.366;2022-08-21T06:01:54;97863.75;;;36.07;54.50
31225;BME280;17847;31.524;74.366;2022-08-21T06:04:50;97861.75;;;36.08;52.09
31225;BME280;17847;31.524;74.366;2022-08-21T06:08:05;97863.59;;;36.43;52.93
31225;BME280;17847;31.524;74.366;2022-08-21T06:11:02;97853.19;;;36.48;51.68
31225;BME280;17847;31.524;74.366;2022-08-21T06:14:20;97849.41;;;36.79;50.56
31225;BME280;17847;31.524;74.366;2022-08-21T06:17:16;97853.34;;;36.86;51.43
31225;BME280;17847;31.524;74.366;2022-08-21T06:20:31;97843.91;;;36.69;51.53
31225;BME280;17847;31.524;74.366;2022-08-21T06:23:34;97849.22;;;36.45;51.11
31225;BME280;17847;31.524;74.366;2022-08-21T06:26:43;97849.19;;;37.08;51.09
31225;BME280;17847;31.524;74.366;2022-08-21T06:29:46;97838.28;;;36.72;51.55
31225;BME280;17847;31.524;74.366;2022-08-21T06:33:02;97830.56;;;36.31;52.71
31225;BME280;17847;31.524;74.366;2022-08-21T06:35:58;97842.50;;;36.32;51.88
31225;BME280;17847;31.524;74.366;2022-08-21T06:39:13;97840.31;;;35.91;54.01
31225;BME280;17847;31.524;74.366;2022-08-21T06:42:24;97841.03;;;36.02;52.32
31225;BME280;17847;31.524;74.366;2022-08-21T06:45:34;97835.53;;;35.84;54.87
31225;BME280;17847;31.524;74.366;2022-08-21T06:48:37;97837.97;;;35.64;52.01
31225;BME280;17847;31.524;74.366;2022-08-21T06:51:45;97828.75;;;35.81;50.36
31225;BME280;17847;31.524;74.366;2022-08-21T06:55:01;97828.59;;;36.21;51.87
31225;BME280;17847;31.524;74.366;2022-08-21T06:57:57;97827.69;;;36.42;52.57
31225;BME280;17847;31.524;74.366;2022-08-21T07:01:12;97819.41;;;36.87;52.07
31225;BME280;17847;31.524;74.366;2022-08-21T07:04:18;97814.00;;;36.58;49.86
31225;BME280;17847;31.524;74.366;2022-08-21T07:07:26;97808.63;;;36.26;52.04
31225;BME280;17847;31.524;74.366;2022-08-21T07:10:29;97809.03;;;36.24;52.12
31225;BME280;17847;31.524;74.366;2022-08-21T07:13:37;97811.16;;;35.92;51.25
31225;BME280;17847;31.524;74.366;2022-08-21T07:16:41;97802.81;;;35.81;53.95
31225;BME280;17847;31.524;74.366;2022-08-21T07:19:58;97796.91;;;35.75;52.26
31225;BME280;17847;31.524;74.366;2022-08-21T07:22:54;97789.88;;;36.23;53.27
31225;BME280;17847;31.524;74.366;2022-08-21T07:26:13;97784.94;;;36.49;52.80
31225;BME280;17847;31.524;74.366;2022-08-21T07:29:09;97786.56;;;36.46;50.65
31225;BME280;17847;31.524;74.366;2022-08-21T07:32:24;97784.81;;;36.63;52.28
31225;BME280;17847;31.524;74.366;2022-08-21T07:35:27;97793.56;;;36.72;48.55
31225;BME280;17847;31.524;74.366;2022-08-21T07:38:35;97788.41;;;37.12;48.74
31225;BME280;17847;31.524;74.366;2022-08-21T07:41:40;97783.34;;;37.00;48.93
31225;BME280;17847;31.524;74.366;2022-08-21T07:44:55;97782.94;;;37.39;48.02
31225;BME280;17847;31.524;74.366;2022-08-21T07:47:51;97773.63;;;37.15;49.84
31225;BME280;17847;31.524;74.366;2022-08-21T07:51:10;97769.22;;;37.14;48.84
31225;BME280;17847;31.524;74.366;2022-08-21T07:54:13;97764.09;;;37.06;47.58
31225;BME280;17847;31.524;74.366;2022-08-21T07:57:33;97766.38;;;37.21;47.71
31225;BME280;17847;31.524;74.366;2022-08-21T08:00:29;97758.53;;;37.02;48.22
31225;BME280;17847;31.524;74.366;2022-08-21T08:03:45;97758.03;;;37.14;48.32
31225;BME280;17847;31.524;74.366;2022-08-21T08:06:42;97758.25;;;37.34;46.13
31225;BME280;17847;31.524;74.366;2022-08-21T08:09:58;97750.47;;;37.15;45.62
31225;BME280;17847;31.524;74.366;2022-08-21T08:12:54;97738.78;;;37.20;45.18
31225;BME280;17847;31.524;74.366;2022-08-21T08:16:10;97727.59;;;37.54;45.42
31225;BME280;17847;31.524;74.366;2022-08-21T08:19:06;97726.94;;;37.43;46.05
31225;BME280;17847;31.524;74.366;2022-08-21T08:22:23;97731.72;;;37.46;46.91
31225;BME280;17847;31.524;74.366;2022-08-21T08:25:19;97731.63;;;37.53;46.43
31225;BME280;17847;31.524;74.366;2022-08-21T08:28:41;97723.28;;;37.15;44.40
31225;BME280;17847;31.524;74.366;2022-08-21T08:31:44;97710.47;;;37.14;45.36
31225;BME280;17847;31.524;74.366;2022-08-21T08:34:59;97715.34;;;37.45;46.43
31225;BME280;17847;31.524;74.366;2022-08-21T08:37:57;97712.34;;;36.87;46.21
31225;BME280;17847;31.524;74.366;2022-08-21T08:41:20;97705.72;;;37.11;46.13
31225;BME280;17847;31.524;74.366;2022-08-21T08:44:24;97692.41;;;36.84;43.89
31225;BME280;17847;31.524;74.366;2022-08-21T08:47:43;97690.00;;;36.87;47.26
31225;BME280;17847;31.524;74.366;2022-08-21T08:50:51;97689.75;;;37.08;45.20
31225;BME280;17847;31.524;74.366;2022-08-21T08:54:11;97681.56;;;37.28;45.64
31225;BME280;17847;31.524;74.366;2022-08-21T08:56:54;97678.59;;;37.04;46.21
31225;BME280;17847;31.524;74.366;2022-08-21T08:59:44;97669.75;;;37.10;44.90
31225;BME280;17847;31.524;74.366;2022-08-21T09:02:22;97664.19;;;37.06;45.13
31225;BME280;17847;31.524;74.366;2022-08-21T09:21:28;97641.75;;;36.79;44.34
31225;BME280;17847;31.524;74.366;2022-08-21T09:24:33;97634.59;;;36.74;43.86
31225;BME280;17847;31.524;74.366;2022-08-21T09:27:25;97628.94;;;36.36;44.12
31225;BME280;17847;31.524;74.366;2022-08-21T09:30:13;97622.56;;;36.77;45.09
31225;BME280;17847;31.524;74.366;2022-08-21T09:32:55;97614.44;;;36.90;45.15
31225;BME280;17847;31.524;74.366;2022-08-21T09:35:53;97618.03;;;36.91;44.85
31225;BME280;17847;31.524;74.366;2022-08-21T09:38:37;97608.53;;;36.84;45.21
31225;BME280;17847;31.524;74.366;2022-08-21T09:41:34;97610.94;;;36.82;45.89
31225;BME280;17847;31.524;74.366;2022-08-21T09:44:12;97603.22;;;36.94;45.62
31225;BME280;17847;31.524;74.366;2022-08-21T09:47:09;97600.31;;;36.63;45.39
31225;BME280;17847;31.524;74.366;2022-08-21T09:49:51;97594.63;;;36.77;46.14
31225;BME280;17847;31.524;74.366;2022-08-21T09:52:49;97593.59;;;36.57;46.61
31225;BME280;17847;31.524;74.366;2022-08-21T09:56:03;97593.16;;;36.62;46.74
31225;BME280;17847;31.524;74.366;2022-08-21T09:59:27;97583.72;;;36.87;46.69
31225;BME280;17847;31.524;74.366;2022-08-21T10:02:31;97582.44;;;36.95;45.69
31225;BME280;17847;31.524;74.366;2022-08-21T10:05:27;97573.84;;;36.78;46.30
31225;BME280;17847;31.524;74.366;2022-08-21T10:08:02;97563.44;;;37.13;46.49
31225;BME280;17847;31.524;74.366;2022-08-21T10:11:15;97572.00;;;36.61;45.49
31225;BME280;17847;31.524;74.366;2022-08-21T10:17:04;97567.41;;;36.43;46.07
31225;BME280;17847;31.524;74.366;2022-08-21T10:20:00;97563.53;;;36.30;46.41
31225;BME280;17847;31.524;74.366;2022-08-21T10:26:27;97542.63;;;36.83;47.46
31225;BME280;17847;31.524;74.366;2022-08-21T10:29:50;97541.13;;;36.75;50.01
31225;BME280;17847;31.524;74.366;2022-08-21T10:32:43;97537.63;;;36.64;48.14
31225;BME280;17847;31.524;74.366;2022-08-21T10:48:19;97523.59;;;36.71;47.74
31225;BME280;17847;31.524;74.366;2022-08-21T10:54:39;97511.00;;;36.90;46.94
31225;BME280;17847;31.524;74.366;2022-08-21T11:00:58;97505.94;;;36.78;45.77
31225;BME280;17847;31.524;74.366;2022-08-21T11:03:51;97513.19;;;36.37;47.33
31225;BME280;17847;31.524;74.366;2022-08-21T11:07:07;97519.47;;;36.03;48.42
31225;BME280;17847;31.524;74.366;2022-08-21T11:09:56;97519.00;;;36.12;48.51
31225;BME280;17847;31.524;74.366;2022-08-21T11:12:52;97492.31;;;36.45;48.86
31225;BME280;17847;31.524;74.366;2022-08-21T11:15:56;97504.00;;;35.95;49.13
31225;BME280;17847;31.524;74.366;2022-08-21T11:25:11;97516.75;;;36.38;47.72
31225;BME280;17847;31.524;74.366;2022-08-21T11:28:02;97504.16;;;36.22;48.64
31225;BME280;17847;31.524;74.366;2022-08-21T11:43:43;97498.75;;;36.04;47.87
31225;BME280;17847;31.524;74.366;2022-08-21T11:50:20;97484.34;;;36.10;48.33
31225;BME280;17847;31.524;74.366;2022-08-21T11:53:32;97483.50;;;36.13;48.99
31225;BME280;17847;31.524;74.366;2022-08-21T11:56:39;97476.09;;;35.95;48.44
31225;BME280;17847;31.524;74.366;2022-08-21T11:59:41;97485.25;;;35.96;48.56
31225;BME280;17847;31.524;74.366;2022-08-21T12:02:31;97485.88;;;35.65;48.46
31225;BME280;17847;31.524;74.366;2022-08-21T12:05:34;97483.94;;;36.07;47.27
31225;BME280;17847;31.524;74.366;2022-08-21T12:08:34;97481.38;;;35.82;48.06
31225;BME280;17847;31.524;74.366;2022-08-21T12:14:15;97479.06;;;36.15;48.39
31225;BME280;17847;31.524;74.366;2022-08-21T12:17:05;97477.28;;;35.94;48.20
31225;BME280;17847;31.524;74.366;2022-08-21T12:20:22;97471.78;;;35.87;46.75
31225;BME280;17847;31.524;74.366;2022-08-21T12:26:09;97472.19;;;35.85;47.54
31225;BME280;17847;31.524;74.366;2022-08-21T12:29:14;97471.53;;;35.71;49.19
31225;BME280;17847;31.524;74.366;2022-08-21T12:32:23;97471.13;;;35.72;47.54
31225;BME280;17847;31.524;74.366;2022-08-21T12:35:33;97466.88;;;35.49;48.92
31225;BME280;17847;31.524;74.366;2022-08-21T12:39:04;97461.59;;;35.70;47.61
31225;BME280;17847;31.524;74.366;2022-08-21T12:41:51;97462.38;;;35.70;48.14
31225;BME280;17847;31.524;74.366;2022-08-21T12:44:52;97464.28;;;35.77;50.15
31225;BME280;17847;31.524;74.366;2022-08-21T12:47:49;97474.03;;;35.54;48.88
31225;BME280;17847;31.524;74.366;2022-08-21T12:50:54;97471.69;;;35.49;48.06
31225;BME280;17847;31.524;74.366;2022-08-21T12:53:51;97475.63;;;35.55;48.62
31225;BME280;17847;31.524;74.366;2022-08-21T12:57:02;97473.97;;;35.61;47.82
31225;BME280;17847;31.524;74.366;2022-08-21T12:59:45;97481.66;;;35.46;50.42
31225;BME280;17847;31.524;74.366;2022-08-21T13:02:37;97480.31;;;35.06;50.44
31225;BME280;17847;31.524;74.366;2022-08-21T13:05:35;97487.47;;;35.10;50.38
31225;BME280;17847;31.524;74.366;2022-08-21T13:08:34;97490.63;;;35.20;49.79
31225;BME280;17847;31.524;74.366;2022-08-21T13:11:31;97497.44;;;35.08;50.88
31225;BME280;17847;31.524;74.366;2022-08-21T13:14:17;97489.56;;;34.92;50.78
31225;BME280;17847;31.524;74.366;2022-08-21T13:17:26;97495.41;;;35.12;51.60
31225;BME280;17847;31.524;74.366;2022-08-21T13:20:31;97499.81;;;35.09;51.87
31225;BME280;17847;31.524;74.366;2022-08-21T13:23:25;97496.28;;;35.02;51.57
31225;BME280;17847;31.524;74.366;2022-08-21T13:26:19;97501.56;;;34.85;53.27
31225;BME280;17847;31.524;74.366;2022-08-21T13:29:11;97497.53;;;34.90;52.57
31225;BME280;17847;31.524;74.366;2022-08-21T13:31:58;97501.56;;;34.85;52.16
31225;BME280;17847;31.524;74.366;2022-08-21T13:34:55;97496.78;;;34.82;53.45
31225;BME280;17847;31.524;74.366;2022-08-21T13:37:40;97500.41;;;34.65;52.92
31225;BME280;17847;31.524;74.366;2022-08-21T13:40:37;97504.41;;;34.67;54.17
31225;BME280;17847;31.524;74.366;2022-08-21T13:43:26;97510.41;;;34.51;54.74
31225;BME280;17847;31.524;74.366;2022-08-21T13:46:15;97509.56;;;34.69;53.70
31225;BME280;17847;31.524;74.366;2022-08-21T13:49:01;97505.59;;;34.59;54.53
31225;BME280;17847;31.524;74.366;2022-08-21T13:51:51;97515.16;;;34.55;54.45
31225;BME280;17847;31.524;74.366;2022-08-21T13:54:39;97504.84;;;34.44;55.15
31225;BME280;17847;31.524;74.366;2022-08-21T13:57:31;97511.59;;;34.47;56.27
31225;BME280;17847;31.524;74.366;2022-08-21T14:00:28;97522.78;;;34.43;55.38
31225;BME280;17847;31.524;74.366;2022-08-21T14:03:41;97521.97;;;34.43;55.66
31225;BME280;17847;31.524;74.366;2022-08-21T14:06:35;97532.75;;;34.30;56.65
31225;BME280;17847;31.524;74.366;2022-08-21T14:09:40;97533.53;;;34.34;56.59
31225;BME280;17847;31.524;74.366;2022-08-21T14:12:43;97532.75;;;34.30;56.86
31225;BME280;17847;31.524;74.366;2022-08-21T14:15:29;97522.41;;;34.34;57.08
31225;BME280;17847;31.524;74.366;2022-08-21T14:18:18;97523.19;;;34.35;57.37
31225;BME280;17847;31.524;74.366;2022-08-21T14:21:08;97528.78;;;34.31;57.81
31225;BME280;17847;31.524;74.366;2022-08-21T14:24:39;97524.38;;;34.33;57.84
31225;BME280;17847;31.524;74.366;2022-08-21T14:27:33;97531.53;;;34.38;57.80
31225;BME280;17847;31.524;74.366;2022-08-21T14:30:33;97542.28;;;34.14;58.46
31225;BME280;17847;31.524;74.366;2022-08-21T14:33:32;97543.91;;;34.19;58.70
31225;BME280;17847;31.524;74.366;2022-08-21T14:36:22;97539.53;;;34.18;58.20
31225;BME280;17847;31.524;74.366;2022-08-21T14:39:06;97544.69;;;34.09;58.57
31225;BME280;17847;31.524;74.366;2022-08-21T14:41:59;97557.41;;;34.06;58.80
31225;BME280;17847;31.524;74.366;2022-08-21T14:44:46;97541.09;;;34.08;58.17
31225;BME280;17847;31.524;74.366;2022-08-21T14:47:37;97549.06;;;33.99;58.97
31225;BME280;17847;31.524;74.366;2022-08-21T14:50:22;97542.31;;;33.93;59.71
31225;BME280;17847;31.524;74.366;2022-08-21T14:53:16;97551.47;;;33.76;59.56
31225;BME280;17847;31.524;74.366;2022-08-21T14:56:04;97553.03;;;33.80;59.58
31225;BME280;17847;31.524;74.366;2022-08-21T14:58:53;97553.47;;;33.79;60.97
31225;BME280;17847;31.524;74.366;2022-08-21T15:01:39;97557.03;;;33.76;60.05
31225;BME280;17847;31.524;74.366;2022-08-21T15:04:34;97556.63;;;33.81;60.85
31225;BME280;17847;31.524;74.366;2022-08-21T15:07:17;97555.03;;;33.80;59.55
31225;BME280;17847;31.524;74.366;2022-08-21T15:10:14;97565.38;;;33.72;59.00
31225;BME280;17847;31.524;74.366;2022-08-21T15:12:58;97569.34;;;33.71;59.87
31225;BME280;17847;31.524;74.366;2022-08-21T15:15:56;97566.56;;;33.67;59.23
31225;BME280;17847;31.524;74.366;2022-08-21T15:18:40;97564.97;;;33.73;59.52
31225;BME280;17847;31.524;74.366;2022-08-21T15:21:30;97569.34;;;33.67;59.36
31225;BME280;17847;31.524;74.366;2022-08-21T15:24:12;97574.09;;;33.60;58.70
31225;BME280;17847;31.524;74.366;2022-08-21T15:27:04;97571.31;;;33.67;58.81
31225;BME280;17847;31.524;74.366;2022-08-21T15:29:49;97564.94;;;33.52;58.58
31225;BME280;17847;31.524;74.366;2022-08-21T15:32:41;97567.31;;;33.50;58.24
31225;BME280;17847;31.524;74.366;2022-08-21T15:35:23;97566.13;;;33.58;57.78
31225;BME280;17847;31.524;74.366;2022-08-21T15:38:13;97566.13;;;33.62;57.41
31225;BME280;17847;31.524;74.366;2022-08-21T15:40:57;97566.91;;;33.55;57.27
31225;BME280;17847;31.524;74.366;2022-08-21T15:43:57;97562.94;;;33.49;58.71
31225;BME280;17847;31.524;74.366;2022-08-21T15:46:33;97570.13;;;33.64;58.26
31225;BME280;17847;31.524;74.366;2022-08-21T15:49:30;97567.69;;;33.48;58.89
31225;BME280;17847;31.524;74.366;2022-08-21T15:52:17;97570.84;;;33.43;58.84
31225;BME280;17847;31.524;74.366;2022-08-21T15:55:10;97572.44;;;33.37;58.55
31225;BME280;17847;31.524;74.366;2022-08-21T15:57:54;97575.63;;;33.35;59.53
31225;BME280;17847;31.524;74.366;2022-08-21T16:00:45;97578.38;;;33.32;58.67
31225;BME280;17847;31.524;74.366;2022-08-21T16:03:21;97577.19;;;33.29;59.56
31225;BME280;17847;31.524;74.366;2022-08-21T16:06:17;97581.16;;;33.28;59.49
31225;BME280;17847;31.524;74.366;2022-08-21T16:09:19;97586.72;;;33.28;60.13
31225;BME280;17847;31.524;74.366;2022-08-21T16:12:24;97577.56;;;33.24;60.71
31225;BME280;17847;31.524;74.366;2022-08-21T16:15:21;97583.91;;;33.25;59.27
31225;BME280;17847;31.524;74.366;2022-08-21T16:18:17;97578.78;;;33.27;59.67
31225;BME280;17847;31.524;74.366;2022-08-21T16:21:14;97586.28;;;33.23;60.03
31225;BME280;17847;31.524;74.366;2022-08-21T16:24:10;97581.56;;;33.23;60.58
31225;BME280;17847;31.524;74.366;2022-08-21T16:26:45;97587.84;;;33.13;60.72
31225;BME280;17847;31.524;74.366;2022-08-21T16:29:47;97587.47;;;33.14;61.49
31225;BME280;17847;31.524;74.366;2022-08-21T16:32:23;97586.28;;;33.12;61.09
31225;BME280;17847;31.524;74.366;2022-08-21T16:35:20;97586.28;;;33.15;61.71
31225;BME280;17847;31.524;74.366;2022-08-21T16:37:57;97592.22;;;33.10;61.33
31225;BME280;17847;31.524;74.366;2022-08-21T16:40:52;97589.88;;;33.16;61.39
31225;BME280;17847;31.524;74.366;2022-08-21T16:43:29;97597.00;;;33.13;61.16
31225;BME280;17847;31.524;74.366;2022-08-21T16:46:25;97593.00;;;33.11;61.72
31225;BME280;17847;31.524;74.366;2022-08-21T16:49:08;97593.78;;;33.08;61.46
31225;BME280;17847;31.524;74.366;2022-08-21T16:51:57;97586.59;;;33.00;61.91
31225;BME280;17847;31.524;74.366;2022-08-21T16:54:39;97587.38;;;33.04;62.17
31225;BME280;17847;31.524;74.366;2022-08-21T16:57:30;97581.84;;;33.04;62.29
31225;BME280;17847;31.524;74.366;2022-08-21T17:00:14;97577.50;;;33.10;61.27